Time;durP1;ratioP1;P1;durP2;ratioP2;P2;SDS_P1;SDS_P2;PMS_P1;PMS_P2;Temp;Humidity;BMP_temperature;BMP_pressure;BME280_temperature;BME280_humidity;BME280_pressure;Samples;Min_cycle;Max_cycle;Signal;HPM_P1;HPM_P2
2022/07/22 00:01:54;;;;;;;17.87;16.40;;;20.60;99.90;;;;;;5032370;28;20260;-53
2022/07/22 00:04:20;;;;;;;17.97;16.23;;;20.50;99.90;;;;;;5032847;28;20618;-53
2022/07/22 00:06:47;;;;;;;15.77;14.27;;;20.50;99.90;;;;;;5032583;28;20664;-53
2022/07/22 00:09:15;;;;;;;15.03;13.80;;;20.50;99.90;;;;;;5033188;28;20225;-53
2022/07/22 00:11:43;;;;;;;16.20;14.77;;;20.50;99.90;;;;;;5032793;28;20276;-53
2022/07/22 00:14:10;;;;;;;17.27;15.77;;;20.50;99.90;;;;;;5033222;28;20203;-53
2022/07/22 00:16:37;;;;;;;17.27;15.87;;;20.40;99.90;;;;;;5032376;28;20210;-53
2022/07/22 00:19:04;;;;;;;16.63;15.37;;;20.40;99.90;;;;;;5024959;28;20206;-53
2022/07/22 00:21:31;;;;;;;17.53;15.97;;;20.40;99.90;;;;;;5032066;28;20742;-53
2022/07/22 00:23:58;;;;;;;15.07;13.83;;;20.40;99.90;;;;;;5033084;28;20206;-53
2022/07/22 00:26:25;;;;;;;16.90;15.43;;;20.30;99.90;;;;;;5032159;28;20229;-53
2022/07/22 00:28:53;;;;;;;17.67;16.27;;;20.40;99.90;;;;;;5032087;28;20210;-53
2022/07/22 00:31:20;;;;;;;17.70;16.47;;;20.40;99.90;;;;;;5029976;28;20264;-53
2022/07/22 00:33:47;;;;;;;18.70;16.83;;;20.40;99.90;;;;;;5033204;28;20275;-53
2022/07/22 00:36:14;;;;;;;17.07;15.47;;;20.40;99.90;;;;;;5032985;28;20206;-53
2022/07/22 00:38:41;;;;;;;16.80;15.50;;;20.40;99.90;;;;;;5031150;28;20644;-53
2022/07/22 00:41:08;;;;;;;17.57;16.17;;;20.50;99.90;;;;;;5031937;28;20292;-53
2022/07/22 00:43:56;;;;;;;19.33;17.73;;;20.50;99.90;;;;;;5031872;28;20206;-52
2022/07/22 00:46:23;;;;;;;19.33;17.67;;;20.50;99.90;;;;;;5026316;28;20618;-53
2022/07/22 00:48:51;;;;;;;18.00;16.53;;;20.50;99.90;;;;;;5031165;28;20265;-53
2022/07/22 00:51:18;;;;;;;16.97;15.77;;;20.50;99.90;;;;;;5031960;28;20214;-53
2022/07/22 00:53:46;;;;;;;17.90;16.50;;;20.50;99.90;;;;;;5032566;28;20693;-53
2022/07/22 00:56:14;;;;;;;17.43;16.13;;;20.50;99.90;;;;;;5032560;28;20671;-52
2022/07/22 00:58:42;;;;;;;17.27;15.87;;;20.50;99.90;;;;;;5025353;28;20249;-53
2022/07/22 01:01:10;;;;;;;18.13;16.73;;;20.50;99.90;;;;;;5028276;28;20782;-53
2022/07/22 01:03:37;;;;;;;17.77;16.27;;;20.50;99.90;;;;;;5024266;28;20206;-53
2022/07/22 01:06:05;;;;;;;17.37;15.97;;;20.50;99.90;;;;;;5025177;28;20210;-53
2022/07/22 01:08:33;;;;;;;17.70;16.30;;;20.40;99.90;;;;;;5031430;28;20230;-53
2022/07/22 01:11:08;;;;;;;17.03;15.80;;;20.40;99.90;;;;;;5031872;28;20778;-53
2022/07/22 01:13:35;;;;;;;17.40;16.00;;;20.40;99.90;;;;;;5023238;28;20206;-53
2022/07/22 01:16:02;;;;;;;16.97;15.67;;;20.30;99.90;;;;;;5032129;28;20203;-53
2022/07/22 01:18:30;;;;;;;18.67;17.23;;;20.20;99.90;;;;;;5031469;28;20226;-53
2022/07/22 01:20:59;;;;;;;17.17;15.60;;;20.10;99.90;;;;;;5031795;28;20210;-52
2022/07/22 01:23:26;;;;;;;19.07;17.37;;;20.10;99.90;;;;;;5031479;28;20735;-53
2022/07/22 01:25:53;;;;;;;20.87;19.07;;;20.10;99.90;;;;;;5030028;28;20202;-53
2022/07/22 01:28:24;;;;;;;18.67;17.07;;;20.00;99.90;;;;;;5023849;28;20198;-53
2022/07/22 01:31:10;;;;;;;19.40;17.80;;;20.00;99.90;;;;;;5030074;28;20237;-53
2022/07/22 01:33:37;;;;;;;19.53;17.63;;;20.00;99.90;;;;;;5031235;28;20233;-53
2022/07/22 01:36:07;;;;;;;19.37;17.77;;;20.00;99.90;;;;;;5031178;28;20240;-53
2022/07/22 01:38:34;;;;;;;19.30;17.53;;;19.90;99.90;;;;;;5029534;28;20222;-53
2022/07/22 01:41:02;;;;;;;20.13;18.43;;;19.90;99.90;;;;;;5029729;28;20273;-53
2022/07/22 01:43:29;;;;;;;19.73;18.03;;;19.80;99.90;;;;;;5030426;28;20240;-53
2022/07/22 01:45:56;;;;;;;20.20;18.57;;;19.80;99.90;;;;;;5030507;28;20695;-53
2022/07/22 01:48:27;;;;;;;19.07;17.50;;;19.80;99.90;;;;;;5030797;28;20198;-53
2022/07/22 01:50:55;;;;;;;17.77;16.43;;;19.70;99.90;;;;;;5031301;28;20198;-53
2022/07/22 01:53:27;;;;;;;20.67;18.97;;;19.70;99.90;;;;;;5030015;28;20206;-53
2022/07/22 01:55:54;;;;;;;18.40;16.90;;;19.60;99.90;;;;;;5030693;28;20207;-52
2022/07/22 01:58:21;;;;;;;18.10;16.50;;;19.60;99.90;;;;;;5028768;28;20253;-53
2022/07/22 02:00:49;;;;;;;18.80;17.23;;;19.60;99.90;;;;;;5030948;28;20619;-53
2022/07/22 02:03:16;;;;;;;18.00;16.50;;;19.60;99.90;;;;;;5031271;28;20199;-53
2022/07/22 02:05:45;;;;;;;18.83;17.33;;;19.60;99.90;;;;;;5030429;28;20729;-53
2022/07/22 02:08:12;;;;;;;17.77;16.27;;;19.50;99.90;;;;;;5027532;28;20278;-52
2022/07/22 02:10:40;;;;;;;18.83;17.13;;;19.50;99.90;;;;;;5031042;28;20260;-53
2022/07/22 02:13:08;;;;;;;19.60;17.80;;;19.50;99.90;;;;;;5030774;28;20663;-53
2022/07/22 02:15:35;;;;;;;18.20;16.70;;;19.50;99.90;;;;;;5031673;28;20206;-53
2022/07/22 02:18:09;;;;;;;18.73;17.20;;;19.50;99.90;;;;;;5030736;28;20218;-53
2022/07/22 02:20:36;;;;;;;17.50;16.20;;;19.50;99.90;;;;;;5026742;28;20206;-53
2022/07/22 02:23:03;;;;;;;18.40;16.97;;;19.50;99.90;;;;;;5021886;28;20235;-53
2022/07/22 02:25:30;;;;;;;18.67;17.17;;;19.50;99.90;;;;;;5031160;28;20629;-53
2022/07/22 02:27:59;;;;;;;17.43;16.13;;;19.50;99.90;;;;;;5030600;28;20206;-53
2022/07/22 02:30:26;;;;;;;18.80;17.30;;;19.50;99.90;;;;;;5031096;28;20194;-52
2022/07/22 02:32:53;;;;;;;18.17;16.60;;;19.50;99.90;;;;;;5030458;28;20333;-53
2022/07/22 02:35:20;;;;;;;17.40;16.00;;;19.50;99.90;;;;;;5029215;28;20194;-53
2022/07/22 02:37:47;;;;;;;18.87;17.33;;;19.50;99.90;;;;;;5029847;28;20210;-53
2022/07/22 02:40:14;;;;;;;16.73;15.30;;;19.50;99.90;;;;;;5030713;28;20624;-53
2022/07/22 02:42:41;;;;;;;17.67;16.10;;;19.50;99.90;;;;;;5030398;28;20219;-53
2022/07/22 02:45:10;;;;;;;17.73;16.33;;;19.60;99.90;;;;;;5031102;28;20256;-53
2022/07/22 02:47:46;;;;;;;18.70;17.00;;;19.60;99.90;;;;;;5030320;28;20206;-53
2022/07/22 02:50:13;;;;;;;19.50;17.77;;;19.60;99.90;;;;;;5025091;28;20198;-53
2022/07/22 02:52:40;;;;;;;18.03;16.53;;;19.60;99.90;;;;;;5029846;28;20640;-53
2022/07/22 02:55:08;;;;;;;17.27;15.97;;;19.60;99.90;;;;;;5030760;28;20257;-53
2022/07/22 02:57:35;;;;;;;16.97;15.67;;;19.60;99.90;;;;;;5028012;28;20756;-52
2022/07/22 03:00:02;;;;;;;18.20;16.60;;;19.60;99.90;;;;;;5030140;28;20202;-53
2022/07/22 03:02:30;;;;;;;16.90;15.63;;;19.60;99.90;;;;;;5029041;28;20599;-53
2022/07/22 03:04:57;;;;;;;16.90;15.70;;;19.50;99.90;;;;;;5030508;28;20256;-53
2022/07/22 03:07:24;;;;;;;17.33;16.00;;;19.50;99.90;;;;;;5030893;28;20624;-52
2022/07/22 03:09:51;;;;;;;19.73;18.07;;;19.50;99.90;;;;;;5029679;28;20203;-53
2022/07/22 03:12:18;;;;;;;19.17;17.43;;;19.40;99.90;;;;;;5029908;28;20730;-53
2022/07/22 03:14:45;;;;;;;16.27;14.97;;;19.30;99.90;;;;;;5030706;28;20241;-53
2022/07/22 03:17:12;;;;;;;19.37;17.67;;;19.30;99.90;;;;;;5025886;28;20199;-53
2022/07/22 03:19:40;;;;;;;18.00;16.47;;;19.20;99.90;;;;;;5029605;28;20299;-53
2022/07/22 03:22:07;;;;;;;19.03;17.40;;;19.10;99.90;;;;;;5029887;28;20299;-53
2022/07/22 03:24:34;;;;;;;17.97;16.50;;;19.10;99.90;;;;;;5034429;28;20237;-53
2022/07/22 03:27:01;;;;;;;17.60;16.30;;;19.10;99.90;;;;;;5034330;28;20202;-53
2022/07/22 03:29:28;;;;;;;18.50;16.90;;;19.10;99.90;;;;;;5034100;28;20191;-53
2022/07/22 03:31:55;;;;;;;16.87;15.47;;;19.10;99.90;;;;;;5024066;28;20270;-53
2022/07/22 03:34:22;;;;;;;19.20;17.70;;;19.00;99.90;;;;;;5033978;28;20233;-53
2022/07/22 03:36:50;;;;;;;18.77;17.03;;;19.00;99.90;;;;;;5034291;28;20327;-52
2022/07/22 03:39:17;;;;;;;18.63;17.03;;;19.00;99.90;;;;;;5033113;28;20296;-53
2022/07/22 03:41:44;;;;;;;18.53;16.83;;;19.00;99.90;;;;;;5033145;28;20251;-54
2022/07/22 03:44:11;;;;;;;18.23;16.47;;;18.90;99.90;;;;;;5029328;28;20249;-52
2022/07/22 03:46:38;;;;;;;19.43;17.87;;;19.00;99.90;;;;;;5029563;28;20202;-53
2022/07/22 03:49:05;;;;;;;19.53;17.97;;;18.90;99.90;;;;;;5032312;28;20202;-53
2022/07/22 03:51:32;;;;;;;17.47;16.17;;;18.90;99.90;;;;;;5033159;28;20218;-53
2022/07/22 03:54:00;;;;;;;19.73;18.03;;;18.90;99.90;;;;;;5033932;28;20206;-53
2022/07/22 03:56:27;;;;;;;20.43;18.60;;;18.90;99.90;;;;;;5032205;28;20256;-52
2022/07/22 03:58:54;;;;;;;18.87;17.20;;;18.90;99.90;;;;;;5031840;28;20226;-52
2022/07/22 04:01:21;;;;;;;20.57;18.87;;;18.90;99.90;;;;;;5032952;28;20654;-53
2022/07/22 04:03:49;;;;;;;20.50;18.57;;;18.80;99.90;;;;;;5033267;28;20242;-53
2022/07/22 04:06:16;;;;;;;20.50;18.90;;;18.80;99.90;;;;;;5033458;28;20198;-52
2022/07/22 04:08:43;;;;;;;21.03;19.20;;;18.80;99.90;;;;;;5031539;28;20626;-53
2022/07/22 04:11:11;;;;;;;21.10;19.40;;;18.80;99.90;;;;;;5022765;28;20545;-53
2022/07/22 04:13:38;;;;;;;18.67;17.17;;;18.80;99.90;;;;;;5033108;28;20202;-53
2022/07/22 04:16:06;;;;;;;18.77;17.00;;;18.80;99.90;;;;;;5033003;28;20195;-53
2022/07/22 04:18:33;;;;;;;20.73;18.87;;;18.90;99.90;;;;;;5030359;28;20260;-53
2022/07/22 04:21:00;;;;;;;21.43;19.43;;;18.90;99.90;;;;;;5039238;28;20222;-53
2022/07/22 04:23:27;;;;;;;23.63;21.23;;;19.00;99.90;;;;;;5032202;28;20191;-53
2022/07/22 04:25:54;;;;;;;22.00;20.00;;;19.10;99.90;;;;;;5022753;28;20293;-53
2022/07/22 04:28:24;;;;;;;20.93;19.33;;;19.10;99.90;;;;;;5028800;28;20209;-53
2022/07/22 04:30:51;;;;;;;20.33;18.67;;;19.10;99.90;;;;;;5025168;28;20202;-53
2022/07/22 04:33:22;;;;;;;19.20;17.60;;;19.20;99.90;;;;;;5029641;28;20207;-53
2022/07/22 04:35:49;;;;;;;21.90;20.10;;;19.20;99.90;;;;;;5031128;28;20622;-53
2022/07/22 04:38:18;;;;;;;20.23;18.53;;;19.30;99.90;;;;;;5030766;28;20222;-53
2022/07/22 04:40:45;;;;;;;19.77;18.07;;;19.30;99.90;;;;;;5031306;28;20297;-53
2022/07/22 04:43:12;;;;;;;22.00;19.77;;;19.40;99.90;;;;;;5029607;28;20206;-54
2022/07/22 04:45:41;;;;;;;21.67;19.47;;;19.60;99.90;;;;;;5031100;28;20230;-53
2022/07/22 04:48:08;;;;;;;20.13;18.53;;;19.70;99.90;;;;;;5028336;28;20194;-53
2022/07/22 04:50:38;;;;;;;20.57;18.73;;;19.90;99.90;;;;;;5030053;28;20206;-53
2022/07/22 04:53:05;;;;;;;21.57;19.77;;;20.00;99.90;;;;;;5030082;28;20218;-53
2022/07/22 04:55:33;;;;;;;20.73;19.07;;;20.10;99.90;;;;;;5024843;28;20577;-53
2022/07/22 04:58:00;;;;;;;22.33;20.43;;;20.10;99.90;;;;;;5024290;28;20253;-53
2022/07/22 05:00:27;;;;;;;23.00;20.47;;;20.20;99.90;;;;;;5037596;28;20816;-53
2022/07/22 05:02:56;;;;;;;21.10;19.47;;;20.40;99.90;;;;;;5029704;28;20223;-53
2022/07/22 05:05:23;;;;;;;21.70;19.53;;;20.60;99.90;;;;;;5030426;28;20206;-54
2022/07/22 05:07:50;;;;;;;21.70;19.70;;;21.00;99.90;;;;;;5032942;28;20199;-53
2022/07/22 05:10:20;;;;;;;21.43;19.37;;;21.50;99.90;;;;;;5034782;28;20665;-53
2022/07/22 05:12:47;;;;;;;20.37;18.67;;;22.00;99.90;;;;;;5029375;28;20218;-53
2022/07/22 05:15:14;;;;;;;20.77;18.67;;;22.60;99.90;;;;;;5030191;28;20202;-54
2022/07/22 05:17:41;;;;;;;19.77;18.17;;;23.20;99.90;;;;;;5030615;28;20206;-53
2022/07/22 05:20:11;;;;;;;20.47;18.50;;;23.70;99.90;;;;;;5029506;28;20233;-53
2022/07/22 05:22:38;;;;;;;19.80;17.93;;;24.10;99.90;;;;;;5027314;28;20230;-53
2022/07/22 05:25:06;;;;;;;17.90;16.50;;;24.70;99.90;;;;;;5028789;28;20202;-53
2022/07/22 05:27:33;;;;;;;18.83;17.30;;;24.90;99.90;;;;;;5029488;28;20202;-53
2022/07/22 05:30:00;;;;;;;20.57;18.70;;;25.20;99.90;;;;;;5029745;28;20217;-53
2022/07/22 05:32:27;;;;;;;19.93;17.57;;;25.50;99.90;;;;;;5027681;28;20226;-53
2022/07/22 05:34:54;;;;;;;19.40;17.53;;;25.70;99.90;;;;;;5029743;28;20209;-53
2022/07/22 05:37:22;;;;;;;18.93;17.33;;;26.20;99.90;;;;;;5030039;28;20294;-54
2022/07/22 05:39:49;;;;;;;18.00;16.63;;;26.50;99.90;;;;;;5030183;28;20221;-54
2022/07/22 05:42:16;;;;;;;16.65;15.35;;;26.90;99.90;;;;;;5028344;28;20211;-54
2022/07/22 05:44:43;;;;;;;21.13;19.42;;;27.40;99.90;;;;;;5029808;28;20210;-53
2022/07/22 05:47:10;;;;;;;18.17;16.75;;;27.80;99.90;;;;;;5028720;28;20202;-53
2022/07/22 05:49:39;;;;;;;18.45;17.05;;;28.00;99.90;;;;;;5030122;28;20198;-54
2022/07/22 05:52:06;;;;;;;19.83;18.27;;;28.30;99.90;;;;;;5025210;28;20218;-54
2022/07/22 05:54:35;;;;;;;19.85;18.35;;;28.50;99.90;;;;;;5031080;28;20257;-54
2022/07/22 05:57:02;;;;;;;19.10;17.60;;;28.70;99.90;;;;;;5031521;28;20202;-54
2022/07/22 05:59:29;;;;;;;20.52;19.02;;;29.00;99.90;;;;;;5029846;28;20700;-54
2022/07/22 06:01:57;;;;;;;19.25;17.63;;;29.20;99.90;;;;;;5027735;28;20230;-53
2022/07/22 06:04:24;;;;;;;17.27;15.88;;;29.60;99.90;;;;;;5025800;28;20695;-53
2022/07/22 06:06:51;;;;;;;17.73;16.27;;;29.50;99.90;;;;;;5032966;28;20252;-54
2022/07/22 06:09:18;;;;;;;19.40;17.90;;;29.40;99.90;;;;;;5031412;28;20209;-54
2022/07/22 06:11:47;;;;;;;19.70;18.00;;;29.60;99.90;;;;;;5024497;28;20222;-54
2022/07/22 06:14:14;;;;;;;20.48;18.65;;;30.00;99.90;;;;;;5027646;28;20260;-54
2022/07/22 06:16:41;;;;;;;18.13;16.75;;;30.50;99.90;;;;;;5030187;28;20203;-54
2022/07/22 06:19:08;;;;;;;18.88;17.25;;;30.60;99.90;;;;;;5028634;28;20222;-54
2022/07/22 06:21:36;;;;;;;19.55;18.02;;;30.80;99.90;;;;;;5029782;28;20602;-54
2022/07/22 06:24:03;;;;;;;20.50;18.90;;;30.90;99.90;;;;;;5031154;28;20206;-54
2022/07/22 06:26:30;;;;;;;20.80;19.17;;;31.00;99.90;;;;;;5028080;28;20305;-54
2022/07/22 06:28:58;;;;;;;18.73;17.30;;;31.20;99.90;;;;;;5030678;28;20226;-54
2022/07/22 06:31:25;;;;;;;19.77;18.13;;;31.30;99.90;;;;;;5030131;28;20271;-54
2022/07/22 06:33:52;;;;;;;17.85;16.52;;;31.80;99.90;;;;;;5029149;28;20206;-54
2022/07/22 06:36:19;;;;;;;19.10;17.63;;;31.90;99.90;;;;;;5027509;28;20678;-54
2022/07/22 06:38:47;;;;;;;18.23;16.63;;;32.30;99.90;;;;;;5030557;28;20217;-53
2022/07/22 06:41:18;;;;;;;19.05;17.55;;;32.70;99.90;;;;;;5028634;28;20251;-55
2022/07/22 06:43:45;;;;;;;20.30;18.88;;;32.80;99.90;;;;;;5028913;28;20198;-54
2022/07/22 06:46:13;;;;;;;20.17;18.63;;;32.90;99.90;;;;;;5030120;28;20206;-53
2022/07/22 06:48:41;;;;;;;18.33;17.08;;;32.50;99.90;;;;;;5029414;28;20195;-54
2022/07/22 06:51:08;;;;;;;17.05;15.77;;;32.70;99.90;;;;;;5027641;28;20308;-53
2022/07/22 06:53:35;;;;;;;17.42;16.08;;;32.80;99.90;;;;;;5027394;28;20207;-54
2022/07/22 06:56:02;;;;;;;16.70;15.60;;;33.00;99.90;;;;;;5028422;28;20249;-54
2022/07/22 06:58:29;;;;;;;15.93;14.80;;;32.90;99.90;;;;;;5031694;28;20695;-54
2022/07/22 07:00:56;;;;;;;15.70;14.70;;;33.20;99.90;;;;;;5032995;28;20256;-54
2022/07/22 07:03:28;;;;;;;16.27;15.18;;;33.40;99.90;;;;;;5033380;28;20728;-54
2022/07/22 07:05:55;;;;;;;16.90;15.70;;;33.40;99.90;;;;;;5033138;28;20202;-54
2022/07/22 07:08:24;;;;;;;16.90;15.70;;;33.00;99.90;;;;;;5029907;28;20394;-54
2022/07/22 07:10:51;;;;;;;16.90;15.65;;;33.30;99.90;;;;;;5031574;28;20254;-54
2022/07/22 07:13:18;;;;;;;16.77;15.43;;;33.60;99.90;;;;;;5030613;28;20585;-54
2022/07/22 07:15:45;;;;;;;15.38;14.48;;;33.70;99.90;;;;;;5034315;28;20214;-55
2022/07/22 07:18:12;;;;;;;16.90;15.70;;;33.90;99.90;;;;;;5032552;28;20361;-55
2022/07/22 07:20:41;;;;;;;15.38;14.48;;;34.10;99.90;;;;;;5034265;28;20308;-54
2022/07/22 07:23:08;;;;;;;15.65;14.35;;;33.90;99.90;;;;;;5031765;28;20753;-54
2022/07/22 07:25:35;;;;;;;16.20;14.93;;;34.00;99.90;;;;;;5025495;28;20210;-54
2022/07/22 07:28:02;;;;;;;15.75;14.45;;;34.10;99.90;;;;;;5033891;28;20195;-55
2022/07/22 07:30:29;;;;;;;16.55;15.18;;;34.10;99.90;;;;;;5031034;28;20202;-54
2022/07/22 07:32:56;;;;;;;17.23;16.02;;;34.30;99.90;;;;;;5031071;28;20277;-54
2022/07/22 07:35:23;;;;;;;16.42;15.30;;;33.90;99.90;;;;;;5032229;28;20207;-54
2022/07/22 07:37:52;;;;;;;18.10;16.67;;;34.00;99.90;;;;;;5032099;28;20671;-54
2022/07/22 07:40:19;;;;;;;16.73;15.43;;;34.10;99.90;;;;;;5026818;28;20344;-54
2022/07/22 07:42:46;;;;;;;15.63;14.43;;;34.10;99.90;;;;;;5032263;28;20276;-54
2022/07/22 07:45:13;;;;;;;16.42;15.32;;;34.00;99.90;;;;;;5023233;28;20292;-55
2022/07/22 07:47:40;;;;;;;16.27;15.15;;;34.60;99.90;;;;;;5033690;28;20615;-54
2022/07/22 07:50:09;;;;;;;14.00;13.18;;;34.80;99.90;;;;;;5033681;28;20245;-55
2022/07/22 07:52:39;;;;;;;15.90;14.75;;;34.60;99.50;;;;;;5032895;28;20262;-54
2022/07/22 07:55:09;;;;;;;15.43;14.38;;;34.90;99.90;;;;;;5032423;28;20307;-55
2022/07/22 07:57:36;;;;;;;15.98;14.95;;;35.20;99.90;;;;;;5033785;28;20195;-54
2022/07/22 08:00:08;;;;;;;16.05;14.77;;;35.20;99.80;;;;;;5033576;28;20258;-54
2022/07/22 08:02:35;;;;;;;16.45;15.25;;;35.30;99.00;;;;;;5032749;28;20949;-55
2022/07/22 08:05:03;;;;;;;15.15;14.15;;;35.20;99.60;;;;;;5033478;28;20238;-55
2022/07/22 08:07:30;;;;;;;15.60;14.50;;;35.40;99.10;;;;;;5032367;28;20253;-54
2022/07/22 08:09:57;;;;;;;16.38;15.07;;;35.50;99.90;;;;;;5022974;28;20676;-55
2022/07/22 08:12:25;;;;;;;15.75;14.75;;;35.60;99.30;;;;;;5032582;28;20222;-54
2022/07/22 08:14:52;;;;;;;15.15;14.15;;;35.30;99.10;;;;;;5033203;28;20202;-54
2022/07/22 08:17:19;;;;;;;17.25;15.85;;;35.50;99.90;;;;;;5033248;28;20203;-55
2022/07/22 08:19:46;;;;;;;16.35;15.35;;;35.40;99.10;;;;;;5032963;28;20218;-54
2022/07/22 08:22:13;;;;;;;16.80;15.50;;;35.40;99.30;;;;;;5028923;28;20292;-55
2022/07/22 08:24:40;;;;;;;17.58;16.20;;;35.80;99.40;;;;;;5032019;28;20206;-54
2022/07/22 08:27:07;;;;;;;15.73;14.63;;;34.80;99.60;;;;;;5032084;28;20226;-55
2022/07/22 08:29:36;;;;;;;15.75;14.63;;;35.10;99.10;;;;;;5032903;28;20249;-54
2022/07/22 08:32:03;;;;;;;16.25;14.82;;;35.00;98.70;;;;;;5032249;28;20231;-55
2022/07/22 08:34:30;;;;;;;17.15;15.95;;;35.40;98.80;;;;;;5031050;28;20698;-54
2022/07/22 08:36:57;;;;;;;16.83;15.63;;;35.70;99.00;;;;;;5032052;28;20662;-55
2022/07/22 08:39:24;;;;;;;17.90;16.73;;;35.70;97.40;;;;;;5032355;28;20222;-54
2022/07/22 08:41:51;;;;;;;15.82;14.82;;;36.00;97.40;;;;;;5031194;28;20372;-54
2022/07/22 08:44:18;;;;;;;15.77;14.73;;;35.70;99.40;;;;;;5025339;28;20226;-54
2022/07/22 08:46:47;;;;;;;16.77;15.68;;;35.50;97.70;;;;;;5031673;28;20198;-55
2022/07/22 08:49:15;;;;;;;18.75;16.88;;;35.70;98.60;;;;;;5031708;28;20281;-55
2022/07/22 08:51:42;;;;;;;17.48;16.38;;;35.30;97.70;;;;;;5031928;28;20254;-55
2022/07/22 08:54:09;;;;;;;18.08;16.88;;;35.20;99.60;;;;;;5032447;28;20207;-55
2022/07/22 08:56:37;;;;;;;15.90;14.88;;;35.10;96.90;;;;;;5026693;28;20229;-55
2022/07/22 08:59:05;;;;;;;15.65;14.55;;;34.90;98.80;;;;;;5028700;28;20229;-55
2022/07/22 09:01:32;;;;;;;17.05;15.60;;;35.40;98.30;;;;;;5026300;28;20218;-55
2022/07/22 09:04:00;;;;;;;17.25;16.08;;;35.60;97.40;;;;;;5031987;28;20855;-55
2022/07/22 09:06:33;;;;;;;15.55;14.45;;;36.00;96.70;;;;;;5031405;28;20269;-55
2022/07/22 09:09:02;;;;;;;14.13;13.27;;;35.90;95.70;;;;;;5032267;28;20206;-55
2022/07/22 09:11:31;;;;;;;13.88;12.98;;;36.30;96.20;;;;;;5031431;28;20280;-55
2022/07/22 09:13:59;;;;;;;13.50;12.70;;;36.50;95.70;;;;;;5031045;28;20290;-55
2022/07/22 09:16:44;;;;;;;14.93;13.82;;;36.90;94.90;;;;;;5031839;28;20199;-54
2022/07/22 09:19:13;;;;;;;14.57;13.48;;;36.70;94.00;;;;;;5030970;28;20206;-55
2022/07/22 09:21:43;;;;;;;14.25;13.25;;;36.50;95.90;;;;;;5030174;28;20314;-55
2022/07/22 09:24:27;;;;;;;14.93;13.82;;;36.20;96.20;;;;;;5025371;28;20234;-55
2022/07/22 09:26:56;;;;;;;13.35;12.65;;;35.60;95.40;;;;;;5031850;28;20238;-54
2022/07/22 09:29:23;;;;;;;13.02;12.23;;;35.30;97.50;;;;;;5028122;28;20275;-55
2022/07/22 09:31:52;;;;;;;14.15;13.15;;;35.60;97.80;;;;;;5028146;28;20276;-55
2022/07/22 09:34:30;;;;;;;13.98;12.80;;;35.50;94.50;;;;;;5031921;28;20296;-55
2022/07/22 09:36:59;;;;;;;13.80;12.90;;;35.90;94.10;;;;;;5031772;28;20672;-55
2022/07/22 09:39:27;;;;;;;14.25;13.23;;;35.70;94.80;;;;;;5031510;28;20257;-55
2022/07/22 09:42:01;;;;;;;13.38;12.32;;;36.30;93.90;;;;;;5028255;28;20284;-54
2022/07/22 09:44:28;;;;;;;12.32;11.52;;;36.30;92.90;;;;;;5031720;28;20241;-55
2022/07/22 09:46:55;;;;;;;12.35;11.57;;;37.00;92.00;;;;;;5022242;28;20234;-55
2022/07/22 09:49:34;;;;;;;13.05;12.15;;;36.90;94.20;;;;;;5030358;28;20202;-54
2022/07/22 09:52:02;;;;;;;13.60;12.70;;;36.60;94.00;;;;;;5030815;28;20222;-54
2022/07/22 09:54:29;;;;;;;14.85;13.77;;;35.60;93.90;;;;;;5030670;28;20635;-55
2022/07/22 09:56:57;;;;;;;13.68;12.77;;;35.00;94.90;;;;;;5031317;28;20252;-55
2022/07/22 09:59:24;;;;;;;13.27;12.18;;;34.90;95.70;;;;;;5029827;28;20268;-54
2022/07/22 10:01:55;;;;;;;12.75;12.05;;;34.80;95.90;;;;;;5024978;28;20740;-55
2022/07/22 10:04:25;;;;;;;12.50;11.70;;;35.10;93.50;;;;;;5029437;28;20198;-55
2022/07/22 10:06:57;;;;;;;13.02;12.13;;;35.20;95.30;;;;;;5030399;28;20206;-54
2022/07/22 10:09:24;;;;;;;12.60;11.88;;;35.30;94.10;;;;;;5029897;28;20248;-55
2022/07/22 10:11:52;;;;;;;13.35;12.30;;;34.90;94.10;;;;;;5027874;28;20221;-54
2022/07/22 10:14:21;;;;;;;11.95;11.23;;;35.10;96.90;;;;;;5029996;28;20241;-54
2022/07/22 10:16:48;;;;;;;13.52;12.43;;;34.70;95.70;;;;;;5028908;28;20305;-55
2022/07/22 10:19:16;;;;;;;11.60;10.85;;;35.00;96.40;;;;;;5027964;28;20194;-55
2022/07/22 10:21:43;;;;;;;12.18;11.35;;;34.50;94.60;;;;;;5028437;28;20304;-55
2022/07/22 10:24:17;;;;;;;12.48;11.68;;;34.70;94.30;;;;;;5027502;28;20199;-55
2022/07/22 10:26:49;;;;;;;12.07;11.20;;;35.10;95.80;;;;;;5027045;28;20230;-54
2022/07/22 10:29:27;;;;;;;11.35;10.70;;;35.00;95.00;;;;;;5023814;28;20496;-54
2022/07/22 10:32:25;;;;;;;12.18;11.38;;;34.20;95.00;;;;;;5029375;28;20722;-55
2022/07/22 10:35:24;;;;;;;11.23;10.52;;;33.90;93.80;;;;;;5027090;28;20652;-55
2022/07/22 10:38:00;;;;;;;10.82;10.23;;;34.40;95.50;;;;;;5028966;28;20202;-55
2022/07/22 10:40:30;;;;;;;11.00;10.35;;;34.80;95.00;;;;;;5029687;28;20597;-55
2022/07/22 10:43:09;;;;;;;11.88;11.18;;;35.10;94.10;;;;;;5029882;28;20254;-55
2022/07/22 10:45:40;;;;;;;12.57;11.77;;;35.20;93.60;;;;;;5031135;28;20264;-54
2022/07/22 10:48:09;;;;;;;14.93;13.75;;;35.50;95.30;;;;;;5030617;28;20230;-55
2022/07/22 10:50:41;;;;;;;13.63;12.43;;;34.80;95.10;;;;;;5029827;28;20290;-55
2022/07/22 10:53:09;;;;;;;13.65;12.63;;;34.80;95.60;;;;;;5028244;28;20985;-55
2022/07/22 10:55:39;;;;;;;13.20;12.32;;;34.70;97.70;;;;;;5030510;28;20226;-55
2022/07/22 10:58:47;;;;;;;12.57;11.75;;;35.20;96.10;;;;;;5030600;28;20210;-55
2022/07/22 11:01:16;;;;;;;12.55;11.75;;;35.30;97.00;;;;;;5029832;28;20716;-55
2022/07/22 11:03:45;;;;;;;13.98;12.80;;;35.40;95.20;;;;;;5030441;28;20276;-55
2022/07/22 11:06:24;;;;;;;12.90;12.00;;;34.40;96.60;;;;;;5030360;28;20202;-54
2022/07/22 11:08:54;;;;;;;13.57;12.68;;;33.80;98.00;;;;;;5025238;28;20256;-54
2022/07/22 11:11:42;;;;;;;13.52;12.63;;;32.90;98.60;;;;;;5023131;28;20225;-55
2022/07/22 11:14:14;;;;;;;13.27;12.38;;;33.10;99.90;;;;;;5030350;28;20352;-54
2022/07/22 11:16:41;;;;;;;13.70;12.90;;;33.10;99.90;;;;;;5030397;28;20203;-54
2022/07/22 11:19:08;;;;;;;13.98;12.88;;;32.70;99.80;;;;;;5030453;28;20198;-54
2022/07/22 11:21:35;;;;;;;12.68;11.60;;;32.20;99.30;;;;;;5028188;28;20277;-55
2022/07/22 11:24:05;;;;;;;14.35;13.35;;;32.40;99.90;;;;;;5028907;28;20195;-54
2022/07/22 11:26:41;;;;;;;13.18;12.27;;;31.90;99.90;;;;;;5024447;28;20238;-54
2022/07/22 11:29:09;;;;;;;13.32;12.38;;;32.00;99.90;;;;;;5028511;28;20287;-54
2022/07/22 11:31:36;;;;;;;14.10;13.13;;;32.00;99.90;;;;;;5026125;28;20238;-54
2022/07/22 11:34:11;;;;;;;14.80;13.30;;;31.60;99.90;;;;;;5028032;28;20288;-54
2022/07/22 11:36:41;;;;;;;14.25;13.00;;;31.50;99.90;;;;;;5028874;28;20256;-54
2022/07/22 11:39:13;;;;;;;12.63;11.70;;;31.50;99.90;;;;;;5027914;28;20732;-54
2022/07/22 11:41:41;;;;;;;13.82;12.73;;;31.60;99.90;;;;;;5028133;28;20219;-55
2022/07/22 11:44:09;;;;;;;13.80;12.80;;;31.60;99.90;;;;;;5029356;28;20198;-54
2022/07/22 11:46:37;;;;;;;13.18;12.27;;;31.60;99.90;;;;;;5028573;28;20202;-55
2022/07/22 11:49:04;;;;;;;13.20;12.20;;;31.50;99.90;;;;;;5032000;28;20222;-54
2022/07/22 11:51:33;;;;;;;12.35;11.57;;;31.60;99.90;;;;;;5029869;28;20219;-54
2022/07/22 11:54:00;;;;;;;13.55;12.52;;;31.50;99.90;;;;;;5031228;28;20265;-54
2022/07/22 11:56:27;;;;;;;13.30;12.15;;;31.50;99.90;;;;;;5032421;28;20295;-54
2022/07/22 11:58:57;;;;;;;11.73;10.93;;;31.40;99.90;;;;;;5032400;28;20248;-54
2022/07/22 12:01:25;;;;;;;13.23;12.23;;;31.20;99.90;;;;;;5030982;28;20234;-55
2022/07/22 12:03:54;;;;;;;13.20;12.15;;;31.30;99.90;;;;;;5032323;28;20281;-54
2022/07/22 12:06:23;;;;;;;12.68;11.88;;;31.30;99.90;;;;;;5031296;28;20264;-54
2022/07/22 12:08:53;;;;;;;12.95;12.07;;;31.10;99.90;;;;;;5030822;28;20195;-54
2022/07/22 12:11:22;;;;;;;13.25;12.25;;;31.10;99.90;;;;;;5030948;28;20233;-54
2022/07/22 12:13:51;;;;;;;12.10;11.30;;;31.10;99.90;;;;;;5031548;28;20206;-54
2022/07/22 12:16:23;;;;;;;13.15;12.18;;;31.10;99.90;;;;;;5030179;28;20209;-54
2022/07/22 12:18:56;;;;;;;12.88;12.00;;;31.20;99.90;;;;;;5032241;28;20202;-54
2022/07/22 12:21:24;;;;;;;12.02;11.23;;;31.30;99.90;;;;;;5031296;28;20680;-54
2022/07/22 12:23:57;;;;;;;13.10;11.98;;;31.30;99.90;;;;;;5029741;28;20202;-54
2022/07/22 12:26:44;;;;;;;14.10;13.02;;;31.20;99.90;;;;;;5032322;28;20194;-54
2022/07/22 12:29:22;;;;;;;12.52;11.68;;;31.10;99.90;;;;;;5028875;28;20195;-54
2022/07/22 12:31:52;;;;;;;12.18;11.32;;;31.30;99.90;;;;;;5030342;28;20301;-55
2022/07/22 12:34:32;;;;;;;11.52;10.55;;;31.10;99.90;;;;;;5031003;28;20572;-54
2022/07/22 12:37:03;;;;;;;13.05;12.25;;;30.90;99.90;;;;;;5031352;28;20676;-54